Time;durP1;ratioP1;P1;durP2;ratioP2;P2;SDS_P1;SDS_P2;PMS_P1;PMS_P2;Temp;Humidity;BMP_temperature;BMP_pressure;BME280_temperature;BME280_humidity;BME280_pressure;Samples;Min_cycle;Max_cycle;Signal;HPM_P1;HPM_P2
2022/07/02 04:21:43;;;;;;;14.30;13.00;;;;;;;17.40;100.00;99449.45;101680;1308;613942;-74
2022/07/02 04:24:10;;;;;;;13.40;12.20;;;;;;;17.39;100.00;99458.48;103505;1283;307145;-74
2022/07/02 04:26:37;;;;;;;14.40;13.00;;;;;;;17.32;100.00;99464.52;104212;1283;60837;-75
2022/07/02 04:29:04;;;;;;;14.40;13.00;;;;;;;17.27;100.00;99465.27;103969;1283;72199;-75
2022/07/02 04:31:31;;;;;;;14.20;12.80;;;;;;;17.34;100.00;99466.67;104276;1283;69310;-74
2022/07/02 04:33:57;;;;;;;14.40;13.10;;;;;;;17.36;100.00;99465.54;103968;1284;73424;-74
2022/07/02 04:36:24;;;;;;;13.90;12.50;;;;;;;17.36;100.00;99465.94;104251;1283;59407;-74
2022/07/02 04:38:50;;;;;;;13.40;12.00;;;;;;;17.36;100.00;99465.94;103940;1283;60368;-75
2022/07/02 04:41:17;;;;;;;14.80;12.80;;;;;;;17.32;100.00;99468.76;104287;1283;72964;-75
2022/07/02 04:43:43;;;;;;;14.50;13.20;;;;;;;17.25;100.00;99466.14;104242;1283;67284;-74
2022/07/02 04:46:10;;;;;;;13.80;12.50;;;;;;;17.24;100.00;99464.63;104249;1283;74734;-74
2022/07/02 04:48:36;;;;;;;14.80;13.30;;;;;;;17.22;100.00;99463.52;104203;1283;60330;-74
2022/07/02 04:51:03;;;;;;;14.80;13.50;;;;;;;17.19;100.00;99465.94;104260;1283;59580;-74
2022/07/02 04:53:30;;;;;;;14.20;12.70;;;;;;;17.26;100.00;99462.31;104261;1283;74487;-75
2022/07/02 04:55:56;;;;;;;14.40;13.00;;;;;;;17.28;100.00;99460.99;104252;1283;69214;-74
2022/07/02 04:58:23;;;;;;;14.20;12.80;;;;;;;17.21;100.00;99458.21;104282;1283;74262;-74
2022/07/02 05:00:49;;;;;;;16.90;13.50;;;;;;;17.20;100.00;99460.27;104277;1283;59612;-74
2022/07/02 05:03:16;;;;;;;15.80;14.20;;;;;;;17.21;100.00;99462.98;105066;1271;61972;-74
2022/07/02 05:05:43;;;;;;;15.70;13.80;;;;;;;17.28;100.00;99465.92;104953;1271;74691;-74
2022/07/02 05:08:09;;;;;;;14.90;13.50;;;;;;;17.27;100.00;99468.12;105057;1271;59670;-74
2022/07/02 05:10:36;;;;;;;16.60;15.00;;;;;;;17.27;100.00;99471.20;105004;1271;71393;-74
2022/07/02 05:13:04;;;;;;;15.10;13.60;;;;;;;17.27;100.00;99481.08;105040;1271;59679;-74
2022/07/02 05:15:31;;;;;;;16.30;14.70;;;;;;;17.32;100.00;99490.73;105131;1271;60818;-73
2022/07/02 05:17:57;;;;;;;15.60;14.10;;;;;;;17.37;100.00;99500.66;104847;1274;74686;-73
2022/07/02 05:20:24;;;;;;;15.50;13.60;;;;;;;17.41;100.00;99505.56;105052;1271;69180;-73
2022/07/02 05:22:51;;;;;;;15.40;14.00;;;;;;;17.41;100.00;99509.31;104964;1271;73327;-73
2022/07/02 05:25:17;;;;;;;14.50;13.20;;;;;;;17.42;100.00;99508.52;105007;1270;59686;-74
2022/07/02 05:27:44;;;;;;;14.70;13.30;;;;;;;17.42;100.00;99509.90;105005;1271;59710;-73
2022/07/02 05:30:11;;;;;;;15.80;14.30;;;;;;;17.47;100.00;99516.17;104836;1271;73022;-74
2022/07/02 05:32:38;;;;;;;16.10;14.40;;;;;;;17.52;100.00;99520.70;105039;1271;69471;-73
2022/07/02 05:35:05;;;;;;;17.20;15.50;;;;;;;17.64;100.00;99526.33;104983;1271;74375;-72
2022/07/02 05:37:32;;;;;;;17.20;14.90;;;;;;;17.69;100.00;99531.27;104849;1271;60518;-74
2022/07/02 05:39:58;;;;;;;16.10;14.50;;;;;;;17.67;100.00;99533.81;104973;1271;62018;-74
2022/07/02 05:42:25;;;;;;;15.00;13.60;;;;;;;17.67;100.00;99534.01;104982;1269;72455;-74
2022/07/02 05:44:51;;;;;;;16.10;14.60;;;;;;;17.71;100.00;99539.75;104951;1271;70249;-73
2022/07/02 05:47:18;;;;;;;14.90;13.60;;;;;;;17.70;100.00;99545.03;104838;1271;73227;-74
2022/07/02 05:49:44;;;;;;;16.90;15.20;;;;;;;17.71;100.00;99544.42;104955;1271;59670;-74
2022/07/02 05:52:11;;;;;;;17.80;16.20;;;;;;;17.78;100.00;99543.33;104955;1271;59620;-75
2022/07/02 05:54:38;;;;;;;16.70;15.10;;;;;;;17.83;100.00;99543.23;104952;1271;73567;-75
2022/07/02 05:57:05;;;;;;;17.40;15.70;;;;;;;17.98;100.00;99543.16;104910;1271;68700;-74
2022/07/02 05:59:32;;;;;;;17.30;15.10;;;;;;;18.11;100.00;99545.59;105010;1271;73420;-74
2022/07/02 06:01:58;;;;;;;17.50;15.80;;;;;;;18.17;100.00;99539.80;105026;1271;59706;-74
2022/07/02 06:04:25;;;;;;;16.50;14.90;;;;;;;18.29;100.00;99531.92;105056;1271;59650;-75
2022/07/02 06:09:36;;;;;;;14.90;13.50;;;;;;;18.60;100.00;99536.86;105063;1271;70358;-75
2022/07/02 06:12:03;;;;;;;14.80;13.50;;;;;;;18.65;100.00;99542.35;106270;1271;59657;-75
2022/07/02 06:14:30;;;;;;;16.30;14.60;;;;;;;18.66;100.00;99537.05;105164;1271;61055;-76
2022/07/02 06:16:56;;;;;;;15.80;14.40;;;;;;;18.55;100.00;99538.35;106193;1271;61834;-76
2022/07/02 06:19:23;;;;;;;13.90;12.60;;;;;;;18.44;100.00;99543.14;105779;1271;73506;-76
2022/07/02 06:21:50;;;;;;;14.40;13.00;;;;;;;18.33;100.00;99548.80;105450;1271;70176;-77
2022/07/02 06:24:16;;;;;;;15.30;13.70;;;;;;;18.24;100.00;99551.40;105851;1271;74196;-75
2022/07/02 06:26:43;;;;;;;15.40;13.80;;;;;;;18.19;100.00;99557.45;105305;1271;60077;-76
2022/07/02 06:29:10;;;;;;;15.70;14.20;;;;;;;18.15;100.00;99562.32;105033;1271;61823;-77
2022/07/02 06:31:36;;;;;;;14.30;12.80;;;;;;;18.17;100.00;99569.34;104969;1271;74734;-77
2022/07/02 06:34:04;;;;;;;14.60;13.20;;;;;;;18.25;100.00;99576.36;105006;1271;68886;-76
2022/07/02 06:36:31;;;;;;;14.10;12.90;;;;;;;18.31;100.00;99585.91;105043;1271;74249;-77
2022/07/02 06:38:57;;;;;;;14.30;13.00;;;;;;;18.28;100.00;99593.01;105036;1271;60053;-75
2022/07/02 06:44:10;;;;;;;15.70;13.90;;;;;;;18.20;100.00;99609.17;105002;1271;74283;-75
2022/07/02 06:46:36;;;;;;;13.90;12.70;;;;;;;18.24;100.00;99612.94;104996;1271;69243;-76
2022/07/02 06:49:03;;;;;;;14.90;13.40;;;;;;;18.24;100.00;99618.34;105049;1271;74258;-75
2022/07/02 06:51:30;;;;;;;14.90;13.60;;;;;;;18.14;100.00;99617.65;105005;1271;60039;-77
2022/07/02 06:54:00;;;;;;;15.50;14.00;;;;;;;18.14;100.00;99615.33;105049;1271;60356;-76
2022/07/02 06:56:36;;;;;;;15.00;13.60;;;;;;;18.22;100.00;99620.11;105021;1271;73453;-76
2022/07/02 06:59:04;;;;;;;15.00;13.50;;;;;;;18.26;100.00;99624.67;105012;1271;70188;-76
2022/07/02 07:01:31;;;;;;;13.60;12.20;;;;;;;18.28;100.00;99624.45;105052;1271;73379;-75
2022/07/02 07:03:58;;;;;;;13.40;12.10;;;;;;;18.31;100.00;99623.09;104956;1271;61364;-75
2022/07/02 07:06:37;;;;;;;12.70;11.60;;;;;;;18.36;100.00;99627.72;105026;1271;59835;-75
2022/07/02 07:09:04;;;;;;;;;;;;;;;18.35;100.00;99631.19;104998;1271;75055;-76
2022/07/02 07:11:31;;;;;;;11.90;10.90;;;;;;;18.33;100.00;99628.19;105009;1271;70513;-76
2022/07/02 07:13:57;;;;;;;12.10;11.00;;;;;;;18.23;100.00;99625.63;104985;1271;74789;-75
2022/07/02 07:16:24;;;;;;;12.40;11.30;;;;;;;18.16;100.00;99632.52;105007;1271;60230;-75
2022/07/02 07:19:04;;;;;;;12.70;9.80;;;;;;;18.17;100.00;99641.29;105033;1271;61199;-76
2022/07/02 07:21:35;;;;;;;10.00;9.20;;;;;;;18.22;100.00;99640.65;104893;1271;74847;-75
2022/07/02 07:24:02;;;;;;;11.00;10.10;;;;;;;18.31;100.00;99645.09;105089;1271;67298;-75
2022/07/02 07:26:29;;;;;;;11.10;10.30;;;;;;;18.39;100.00;99649.90;104971;1271;74187;-75
2022/07/02 07:28:56;;;;;;;11.60;10.70;;;;;;;18.34;100.00;99655.27;104982;1271;61030;-74
2022/07/02 07:31:22;;;;;;;12.20;11.30;;;;;;;18.29;100.00;99651.20;104938;1271;61793;-75
2022/07/02 07:33:51;;;;;;;12.30;11.30;;;;;;;18.35;100.00;99657.42;105019;1271;73779;-75
2022/07/02 07:36:20;;;;;;;11.60;10.70;;;;;;;18.39;100.00;99659.09;104990;1271;68679;-74
2022/07/02 07:38:49;;;;;;;12.00;11.10;;;;;;;18.45;100.00;99661.61;104932;1271;72663;-75
2022/07/02 07:41:17;;;;;;;11.10;10.20;;;;;;;18.46;100.00;99664.48;104978;1271;60100;-75
2022/07/02 07:43:43;;;;;;;13.10;11.90;;;;;;;18.44;100.00;99666.05;105041;1271;61852;-75
2022/07/02 07:46:10;;;;;;;11.50;10.60;;;;;;;18.42;100.00;99666.03;104890;1271;73766;-75
2022/07/02 07:48:37;;;;;;;12.10;11.20;;;;;;;18.42;100.00;99666.23;105051;1271;70762;-76
2022/07/02 07:51:07;;;;;;;13.30;12.00;;;;;;;18.40;100.00;99668.88;105033;1271;73400;-76
2022/07/02 07:53:34;;;;;;;13.50;12.20;;;;;;;18.40;100.00;99668.36;105041;1271;61263;-76
2022/07/02 07:56:00;;;;;;;12.50;11.50;;;;;;;18.43;100.00;99669.92;105016;1271;60637;-76
2022/07/02 07:58:27;;;;;;;12.70;11.60;;;;;;;18.44;100.00;99670.15;105071;1271;74551;-75
2022/07/02 08:00:54;;;;;;;12.00;11.00;;;;;;;18.44;100.00;99675.98;104992;1271;70163;-75
2022/07/02 08:03:20;;;;;;;13.60;12.20;;;;;;;18.36;100.00;99672.55;104989;1271;73298;-75
2022/07/02 08:05:47;;;;;;;12.50;11.40;;;;;;;18.34;100.00;99670.74;104869;1272;59743;-75
2022/07/02 08:08:14;;;;;;;14.60;13.50;;;;;;;18.46;100.00;99671.27;104936;1271;60911;-75
2022/07/02 08:10:41;;;;;;;13.60;12.40;;;;;;;18.56;100.00;99677.94;104921;1273;73011;-76
2022/07/02 08:13:08;;;;;;;12.50;11.50;;;;;;;18.62;100.00;99679.20;105047;1273;69230;-75
2022/07/02 08:15:34;;;;;;;11.30;10.40;;;;;;;18.68;100.00;99677.42;104905;1273;74386;-75
2022/07/02 08:18:01;;;;;;;10.60;9.80;;;;;;;18.74;100.00;99677.43;104924;1273;59769;-75
2022/07/02 08:20:28;;;;;;;11.20;10.20;;;;;;;18.81;100.00;99680.27;104895;1273;60084;-75
2022/07/02 08:22:54;;;;;;;10.40;9.50;;;;;;;18.87;100.00;99681.66;104930;1273;73079;-76
2022/07/02 08:25:21;;;;;;;9.80;9.00;;;;;;;19.00;100.00;99685.86;104913;1273;70708;-75
2022/07/02 08:27:48;;;;;;;10.20;9.30;;;;;;;19.11;100.00;99686.65;104904;1273;73395;-76
2022/07/02 08:30:16;;;;;;;9.00;8.20;;;;;;;19.07;100.00;99687.02;104902;1273;61700;-76
2022/07/02 08:32:42;;;;;;;9.80;9.10;;;;;;;18.99;100.00;99691.05;104908;1273;61820;-74
2022/07/02 08:35:09;;;;;;;11.10;10.30;;;;;;;19.01;100.00;99690.08;104901;1273;74503;-75
2022/07/02 08:37:36;;;;;;;10.40;9.50;;;;;;;18.96;100.00;99695.44;104879;1273;69477;-76
2022/07/02 08:40:03;;;;;;;10.90;9.80;;;;;;;18.87;100.00;99695.57;104929;1273;73449;-75
2022/07/02 08:42:31;;;;;;;9.70;9.00;;;;;;;18.91;100.00;99699.10;104795;1273;60952;-75
2022/07/02 08:45:03;;;;;;;9.10;8.30;;;;;;;19.09;100.00;99698.60;104922;1273;60820;-75
2022/07/02 08:47:32;;;;;;;8.50;7.70;;;;;;;19.24;100.00;99699.92;104918;1273;75461;-75
2022/07/02 08:50:00;;;;;;;8.60;7.90;;;;;;;19.22;100.00;99704.35;104906;1273;69218;-75
2022/07/02 08:52:27;;;;;;;8.50;7.80;;;;;;;19.13;100.00;99701.04;104904;1273;73484;-75
2022/07/02 08:54:55;;;;;;;8.80;8.10;;;;;;;19.12;100.00;99702.23;104928;1273;60599;-76
2022/07/02 08:57:23;;;;;;;8.70;8.00;;;;;;;19.16;100.00;99708.23;104925;1273;61048;-77
2022/07/02 08:59:49;;;;;;;9.00;8.30;;;;;;;19.21;100.00;99710.04;104938;1273;74988;-77
2022/07/02 09:02:18;;;;;;;9.90;9.10;;;;;;;19.06;100.00;99711.84;104923;1273;69155;-74
2022/07/02 09:04:47;;;;;;;10.00;9.10;;;;;;;18.93;100.00;99713.52;104955;1273;73416;-77
2022/07/02 09:07:16;;;;;;;9.80;9.10;;;;;;;18.92;100.00;99717.27;104927;1272;61188;-75
2022/07/02 09:09:43;;;;;;;9.90;9.10;;;;;;;18.83;100.00;99723.38;104959;1273;60885;-75
2022/07/02 09:12:11;;;;;;;8.90;8.10;;;;;;;18.76;100.00;99728.19;104948;1273;74353;-74
2022/07/02 09:14:39;;;;;;;9.90;9.10;;;;;;;18.76;100.00;99725.33;104905;1273;70080;-77
2022/07/02 09:17:07;;;;;;;9.90;8.90;;;;;;;18.76;100.00;99731.48;104980;1273;74137;-75
2022/07/02 09:19:35;;;;;;;10.00;9.20;;;;;;;18.77;100.00;99731.70;104956;1273;60572;-75
2022/07/02 09:22:03;;;;;;;9.90;9.00;;;;;;;18.73;100.00;99729.52;105000;1273;60874;-75
2022/07/02 09:24:36;;;;;;;9.70;8.60;;;;;;;18.74;100.00;99731.77;104871;1273;74545;-77
2022/07/02 09:27:07;;;;;;;10.40;9.30;;;;;;;18.83;100.00;99730.27;104997;1273;69175;-75
2022/07/02 09:29:52;;;;;;;10.40;9.40;;;;;;;18.80;100.00;99730.91;104894;1272;74644;-75
2022/07/02 09:32:20;;;;;;;10.20;9.40;;;;;;;18.80;100.00;99728.19;104959;1273;60657;-74
2022/07/02 09:34:52;;;;;;;9.70;8.80;;;;;;;18.90;100.00;99723.52;104802;1273;61832;-76
2022/07/02 09:37:21;;;;;;;9.00;8.20;;;;;;;19.11;100.00;99723.23;104935;1273;75563;-76
2022/07/02 09:39:50;;;;;;;8.80;8.00;;;;;;;19.31;100.00;99722.34;104949;1273;69878;-76
2022/07/02 09:42:28;;;;;;;8.10;7.40;;;;;;;19.62;100.00;99725.27;104886;1273;74301;-75
2022/07/02 09:44:56;;;;;;;8.20;7.50;;;;;;;20.26;100.00;99714.90;104897;1273;61037;-75
2022/07/02 09:47:34;;;;;;;9.20;8.40;;;;;;;20.75;100.00;99717.77;104969;1273;61601;-75
2022/07/02 09:50:12;;;;;;;9.60;8.50;;;;;;;20.93;100.00;99722.52;104909;1273;75515;-75
2022/07/02 09:52:55;;;;;;;9.70;8.70;;;;;;;21.17;100.00;99728.04;104956;1273;70132;-76
2022/07/02 09:55:30;;;;;;;9.90;9.10;;;;;;;21.45;100.00;99729.22;104956;1273;73340;-76
2022/07/02 09:58:02;;;;;;;8.90;8.20;;;;;;;21.32;100.00;99725.69;104903;1273;61472;-75
2022/07/02 10:00:31;;;;;;;10.70;9.60;;;;;;;21.48;100.00;99731.14;105033;1273;60576;-74
2022/07/02 10:03:01;;;;;;;9.60;9.00;;;;;;;21.71;100.00;99730.13;104999;1273;74329;-75
2022/07/02 10:05:33;;;;;;;;;;;;;;;21.88;100.00;99723.80;104949;1273;69113;-76
2022/07/02 10:08:02;;;;;;;9.40;8.60;;;;;;;22.14;100.00;99722.38;104956;1273;74347;-75
2022/07/02 10:10:38;;;;;;;8.90;8.20;;;;;;;22.37;100.00;99718.80;104894;1273;60968;-76
2022/07/02 10:13:06;;;;;;;8.70;8.10;;;;;;;22.45;100.00;99721.39;104959;1273;61088;-75
2022/07/02 10:15:38;;;;;;;7.80;7.20;;;;;;;22.27;100.00;99725.05;104871;1273;73791;-77
2022/07/02 10:18:06;;;;;;;8.00;7.50;;;;;;;21.91;100.00;99728.54;104925;1273;70746;-76
2022/07/02 10:20:34;;;;;;;8.10;7.50;;;;;;;21.71;100.00;99732.04;104912;1273;74406;-75
2022/07/02 10:23:03;;;;;;;7.70;7.10;;;;;;;21.66;100.00;99732.80;104880;1273;60484;-76
2022/07/02 10:25:32;;;;;;;6.90;6.20;;;;;;;21.63;100.00;99734.86;104929;1273;61027;-75
2022/07/02 10:27:59;;;;;;;6.00;5.50;;;;;;;21.54;100.00;99741.94;105034;1273;75631;-75
2022/07/02 10:30:33;;;;;;;5.70;5.30;;;;;;;21.51;100.00;99738.63;104918;1273;68036;-75
2022/07/02 10:33:03;;;;;;;5.10;4.70;;;;;;;21.25;100.00;99742.11;104917;1273;74240;-75
2022/07/02 10:35:32;;;;;;;5.50;5.10;;;;;;;20.99;100.00;99740.54;104899;1273;60548;-76
2022/07/02 10:38:00;;;;;;;5.70;5.20;;;;;;;20.94;100.00;99741.00;104934;1273;60575;-75
2022/07/02 10:40:27;;;;;;;6.40;5.80;;;;;;;20.86;100.00;99738.36;104852;1273;75394;-75
2022/07/02 10:42:59;;;;;;;8.00;7.30;;;;;;;20.79;100.00;99747.01;104808;1273;70173;-76
2022/07/02 10:45:27;;;;;;;8.10;7.30;;;;;;;20.65;100.00;99750.33;104886;1273;73429;-76
2022/07/02 10:48:03;;;;;;;10.20;9.20;;;;;;;20.43;100.00;99746.66;104985;1273;60504;-76
2022/07/02 10:50:39;;;;;;;8.70;8.00;;;;;;;20.20;100.00;99745.05;104932;1273;61069;-76
2022/07/02 10:53:24;;;;;;;9.20;8.40;;;;;;;20.20;100.00;99746.02;104982;1272;73506;-76
2022/07/02 10:55:50;;;;;;;11.10;10.10;;;;;;;19.98;100.00;99747.70;105009;1273;70246;-76
2022/07/02 10:58:23;;;;;;;11.90;11.00;;;;;;;19.93;100.00;99749.95;104901;1273;60492;-75
2022/07/02 11:00:50;;;;;;;11.70;10.70;;;;;;;19.96;100.00;99750.71;104967;1273;60539;-75
2022/07/02 11:03:19;;;;;;;12.40;11.30;;;;;;;20.04;100.00;99749.09;105090;1273;61755;-75
2022/07/02 11:06:19;;;;;;;12.90;11.80;;;;;;;20.18;100.00;99755.67;104929;1273;72833;-75
2022/07/02 11:09:05;;;;;;;12.70;11.50;;;;;;;20.27;100.00;99752.86;105005;1273;69264;-74
2022/07/02 11:11:35;;;;;;;12.50;11.20;;;;;;;20.31;100.00;99752.67;104917;1273;74112;-75
2022/07/02 11:14:03;;;;;;;13.20;11.90;;;;;;;20.31;100.00;99754.70;104932;1273;61085;-75
2022/07/02 11:16:40;;;;;;;12.70;11.50;;;;;;;20.29;100.00;99756.47;104952;1273;61827;-75
2022/07/02 11:19:19;;;;;;;11.10;10.30;;;;;;;20.29;100.00;99757.38;105063;1272;74099;-75
2022/07/02 11:21:47;;;;;;;12.10;11.00;;;;;;;20.35;100.00;99758.05;104915;1273;70864;-74
2022/07/02 11:24:22;;;;;;;11.20;10.30;;;;;;;20.34;100.00;99754.88;104653;1279;72445;-75
2022/07/02 11:26:50;;;;;;;12.10;11.00;;;;;;;20.37;100.00;99757.36;104574;1278;61102;-75
2022/07/02 11:29:17;;;;;;;11.80;11.00;;;;;;;20.43;100.00;99759.79;104608;1279;61835;-76
2022/07/02 11:31:49;;;;;;;11.50;10.60;;;;;;;20.47;100.00;99757.67;104623;1279;74461;-74
2022/07/02 11:34:36;;;;;;;12.00;11.10;;;;;;;20.57;100.00;99759.34;104692;1277;70455;-74
2022/07/02 11:37:02;;;;;;;10.60;9.80;;;;;;;20.65;100.00;99760.67;104064;1282;73595;-74
2022/07/02 11:39:29;;;;;;;13.10;12.00;;;;;;;20.68;100.00;99762.85;104019;1282;60667;-74
2022/07/02 11:41:56;;;;;;;12.30;11.40;;;;;;;20.73;100.00;99763.25;104032;1282;60731;-75
2022/07/02 11:44:25;;;;;;;13.00;11.80;;;;;;;20.76;100.00;99764.44;104030;1282;75319;-75
2022/07/02 11:46:56;;;;;;;12.20;11.20;;;;;;;20.76;100.00;99765.89;104027;1282;70608;-74
2022/07/02 11:49:25;;;;;;;13.10;11.80;;;;;;;20.76;100.00;99766.84;104110;1282;73198;-75
2022/07/02 11:51:53;;;;;;;11.70;10.60;;;;;;;20.80;100.00;99766.42;104030;1282;60460;-74
2022/07/02 11:54:22;;;;;;;10.70;9.60;;;;;;;20.93;100.00;99762.22;104052;1282;60849;-74
2022/07/02 11:56:50;;;;;;;12.00;10.90;;;;;;;21.03;100.00;99763.62;104497;1279;74449;-74
2022/07/02 11:59:18;;;;;;;9.80;9.00;;;;;;;21.05;100.00;99762.48;104462;1280;70236;-74
2022/07/02 12:01:47;;;;;;;12.00;11.00;;;;;;;21.14;100.00;99757.98;104560;1280;74127;-75
2022/07/02 12:04:16;;;;;;;11.40;10.30;;;;;;;21.22;100.00;99754.80;104565;1280;60629;-74
2022/07/02 12:06:44;;;;;;;12.10;11.20;;;;;;;21.33;100.00;99757.96;104446;1280;60984;-76
2022/07/02 12:09:14;;;;;;;9.80;9.10;;;;;;;21.46;100.00;99759.23;104474;1280;73780;-74
2022/07/02 12:11:44;;;;;;;9.70;8.80;;;;;;;21.64;100.00;99757.57;104543;1280;70479;-75
2022/07/02 12:14:12;;;;;;;10.50;9.50;;;;;;;21.80;100.00;99760.45;104620;1273;74513;-74
2022/07/02 12:16:41;;;;;;;10.20;9.40;;;;;;;22.01;100.00;99761.98;104878;1273;60531;-77
2022/07/02 12:19:13;;;;;;;9.30;8.50;;;;;;;22.24;100.00;99758.67;105013;1273;60738;-75
2022/07/02 12:21:44;;;;;;;10.70;9.80;;;;;;;22.43;100.00;99754.23;105131;1273;74883;-75
2022/07/02 12:24:24;;;;;;;10.40;9.60;;;;;;;22.53;100.00;99755.16;104956;1273;70536;-75
2022/07/02 12:26:52;;;;;;;10.90;9.90;;;;;;;22.61;100.00;99754.50;105038;1273;71935;-75
2022/07/02 12:32:26;;;;;;;9.40;8.70;;;;;;;22.58;100.00;99760.89;105005;1273;61700;-77
2022/07/02 12:34:54;;;;;;;9.80;9.00;;;;;;;22.52;100.00;99754.54;105008;1273;75284;-74
2022/07/02 12:37:38;;;;;;;8.50;7.80;;;;;;;22.47;100.00;99756.08;105024;1273;69930;-75
2022/07/02 12:40:07;;;;;;;9.10;8.30;;;;;;;22.52;100.00;99757.09;104990;1273;73068;-75
2022/07/02 12:42:48;;;;;;;9.10;8.40;;;;;;;22.53;100.00;99753.31;105037;1273;60501;-75
2022/07/02 12:45:33;;;;;;;;;;;;;;;22.52;100.00;99750.46;105049;1273;60774;-74
2022/07/02 12:48:11;;;;;;;8.20;7.50;;;;;;;22.42;100.00;99746.29;105013;1273;74181;-75
2022/07/02 12:50:41;;;;;;;8.40;7.70;;;;;;;22.38;100.00;99743.47;105191;1273;69206;-75
2022/07/02 12:53:13;;;;;;;9.00;8.20;;;;;;;22.34;100.00;99742.59;105543;1273;74643;-74
2022/07/02 12:55:44;;;;;;;8.60;8.00;;;;;;;22.30;100.00;99742.89;105346;1274;60525;-76
2022/07/02 12:58:13;;;;;;;9.10;8.40;;;;;;;22.23;100.00;99742.84;105522;1273;60612;-76
2022/07/02 13:00:43;;;;;;;9.40;8.60;;;;;;;22.10;100.00;99744.18;106853;1273;75443;-75
2022/07/02 13:03:12;;;;;;;10.30;8.60;;;;;;;22.14;100.00;99740.38;107723;1273;67449;-76
2022/07/02 13:05:42;;;;;;;8.10;7.30;;;;;;;22.26;100.00;99735.09;107968;1273;73163;-76
2022/07/02 13:08:09;;;;;;;7.90;7.30;;;;;;;22.38;100.00;99733.67;107926;1273;59266;-75
2022/07/02 13:10:37;;;;;;;8.50;7.70;;;;;;;22.56;100.00;99733.43;107643;1273;60874;-75
2022/07/02 13:13:04;;;;;;;8.30;7.70;;;;;;;22.83;100.00;99729.89;104960;1273;75589;-74
2022/07/02 13:15:31;;;;;;;7.80;7.10;;;;;;;23.04;100.00;99730.41;104883;1273;70240;-75
2022/07/02 13:17:58;;;;;;;7.40;6.70;;;;;;;23.21;100.00;99728.31;104937;1273;73487;-77
2022/07/02 13:20:26;;;;;;;7.80;7.20;;;;;;;23.15;100.00;99730.86;104839;1273;60573;-81
2022/07/02 13:22:53;;;;;;;7.20;6.60;;;;;;;23.07;100.00;99728.96;104945;1273;61643;-75
2022/07/02 13:25:21;;;;;;;8.30;7.60;;;;;;;23.07;100.00;99732.56;104971;1273;74284;-75
2022/07/02 13:27:48;;;;;;;7.60;7.00;;;;;;;23.05;100.00;99729.71;104990;1273;70434;-75
2022/07/02 13:30:17;;;;;;;8.30;7.60;;;;;;;23.03;100.00;99726.51;104961;1273;74888;-75
2022/07/02 13:32:46;;;;;;;7.60;7.10;;;;;;;22.97;100.00;99724.18;104972;1273;60465;-75
2022/07/02 13:35:13;;;;;;;8.20;7.50;;;;;;;22.88;100.00;99721.14;104968;1273;61700;-73
2022/07/02 13:37:42;;;;;;;7.60;7.10;;;;;;;22.91;100.00;99721.41;104921;1273;74747;-76
2022/07/02 13:40:10;;;;;;;7.70;7.10;;;;;;;23.06;100.00;99724.89;105005;1273;69389;-75
2022/07/02 13:42:38;;;;;;;7.70;7.00;;;;;;;23.10;100.00;99724.45;104952;1273;73424;-75
2022/07/02 13:45:07;;;;;;;6.90;6.40;;;;;;;23.09;100.00;99723.64;104990;1273;60589;-75
2022/07/02 13:47:33;;;;;;;8.00;7.30;;;;;;;23.14;100.00;99724.36;105055;1273;60915;-75
2022/07/02 13:50:01;;;;;;;6.90;6.40;;;;;;;23.21;100.00;99721.83;104687;1274;75461;-75
2022/07/02 13:52:27;;;;;;;8.10;7.30;;;;;;;23.34;100.00;99719.89;105004;1273;70100;-74
2022/07/02 13:54:56;;;;;;;6.80;6.30;;;;;;;23.43;100.00;99721.02;104936;1273;74405;-74
2022/07/02 13:57:23;;;;;;;7.10;6.60;;;;;;;23.52;100.00;99717.70;104924;1273;60476;-75
2022/07/02 13:59:50;;;;;;;6.80;6.30;;;;;;;23.72;100.00;99717.36;104914;1273;60931;-75
2022/07/02 14:02:16;;;;;;;6.50;6.00;;;;;;;23.99;100.00;99716.42;104841;1274;74525;-75
2022/07/02 14:04:43;;;;;;;7.10;6.50;;;;;;;24.23;100.00;99708.34;104918;1273;70293;-76
2022/07/02 14:07:09;;;;;;;6.90;6.30;;;;;;;24.51;100.00;99707.45;104967;1273;74451;-75
2022/07/02 14:09:36;;;;;;;6.60;6.10;;;;;;;24.70;100.00;99704.57;104924;1273;60447;-76
2022/07/02 14:12:07;;;;;;;6.70;6.20;;;;;;;24.83;100.00;99702.09;104948;1273;62112;-75
2022/07/02 14:14:36;;;;;;;6.00;5.50;;;;;;;24.92;100.00;99700.85;104932;1273;73830;-74
2022/07/02 14:17:03;;;;;;;5.90;5.40;;;;;;;25.06;100.00;99698.22;105004;1273;68221;-76
2022/07/02 14:19:31;;;;;;;6.20;5.70;;;;;;;25.14;100.00;99697.02;104883;1273;74683;-76
2022/07/02 14:22:00;;;;;;;7.10;6.40;;;;;;;25.21;100.00;99692.60;104966;1273;60502;-74
2022/07/02 14:24:27;;;;;;;6.30;5.80;;;;;;;25.29;100.00;99691.13;104960;1273;60941;-76
2022/07/02 14:26:53;;;;;;;6.10;5.60;;;;;;;25.29;100.00;99689.38;104943;1273;75109;-77
2022/07/02 14:29:20;;;;;;;6.70;6.20;;;;;;;25.26;100.00;99693.36;104964;1273;69713;-75
2022/07/02 14:31:49;;;;;;;6.30;5.80;;;;;;;25.21;100.00;99692.14;104783;1274;74150;-76
2022/07/02 14:34:17;;;;;;;6.50;5.80;;;;;;;25.14;100.00;99686.87;104925;1273;60450;-75
2022/07/02 14:36:44;;;;;;;6.00;5.50;;;;;;;25.08;100.00;99687.94;104997;1273;61998;-76
2022/07/02 14:39:11;;;;;;;7.00;6.30;;;;;;;25.08;100.00;99684.11;104905;1273;74209;-75
2022/07/02 14:41:39;;;;;;;6.40;5.80;;;;;;;25.13;100.00;99681.95;104966;1273;69307;-79
2022/07/02 14:44:08;;;;;;;6.60;5.90;;;;;;;25.19;100.00;99680.69;105115;1273;73074;-76
2022/07/02 14:46:35;;;;;;;5.60;5.10;;;;;;;25.21;100.00;99682.27;104961;1273;60497;-77
2022/07/02 14:49:02;;;;;;;6.90;6.20;;;;;;;25.25;100.00;99680.59;104918;1273;60771;-76
2022/07/02 14:51:29;;;;;;;6.10;5.50;;;;;;;25.21;100.00;99683.61;104932;1273;75562;-76
2022/07/02 14:53:58;;;;;;;6.60;5.90;;;;;;;25.08;100.00;99677.92;104927;1273;70166;-76
2022/07/02 14:56:25;;;;;;;7.30;6.70;;;;;;;24.83;100.00;99676.29;104931;1273;74558;-76
2022/07/02 14:58:52;;;;;;;6.10;5.70;;;;;;;24.57;100.00;99675.29;104917;1273;60469;-76
2022/07/02 15:01:18;;;;;;;7.10;6.30;;;;;;;24.42;100.00;99675.92;104928;1273;61720;-76
2022/07/02 15:03:45;;;;;;;6.50;5.80;;;;;;;24.37;100.00;99671.09;104951;1273;75014;-74
2022/07/02 15:06:12;;;;;;;6.10;5.50;;;;;;;24.43;100.00;99668.25;104930;1273;69258;-76
2022/07/02 15:08:40;;;;;;;6.20;4.80;;;;;;;24.47;100.00;99667.89;104902;1272;74250;-74
2022/07/02 15:11:07;;;;;;;6.40;5.80;;;;;;;24.51;100.00;99665.25;104912;1273;60920;-75
2022/07/02 15:16:19;;;;;;;4.90;4.60;;;;;;;24.64;100.00;99659.77;104932;1273;75576;-76
2022/07/02 15:18:45;;;;;;;5.50;5.10;;;;;;;24.70;100.00;99657.06;104924;1273;69140;-76
2022/07/02 15:21:17;;;;;;;5.80;5.40;;;;;;;24.77;100.00;99655.60;105023;1273;74394;-76
2022/07/02 15:23:53;;;;;;;5.10;4.70;;;;;;;24.82;100.00;99655.40;104889;1273;60791;-76
2022/07/02 15:26:22;;;;;;;6.00;5.60;;;;;;;24.86;100.00;99652.66;105014;1273;61888;-75
2022/07/02 15:28:50;;;;;;;6.30;5.70;;;;;;;24.88;100.00;99647.91;104928;1273;74585;-75
2022/07/02 15:31:19;;;;;;;6.80;6.10;;;;;;;24.93;100.00;99645.55;104884;1273;69273;-75
2022/07/02 15:33:47;;;;;;;6.70;6.10;;;;;;;24.94;100.00;99645.68;104977;1273;73958;-76
2022/07/02 15:36:16;;;;;;;6.00;5.60;;;;;;;24.98;100.00;99643.35;104920;1273;60380;-76
2022/07/02 15:38:51;;;;;;;6.40;6.00;;;;;;;25.01;100.00;99641.17;104913;1274;60438;-75
2022/07/02 15:41:23;;;;;;;6.30;5.80;;;;;;;25.05;100.00;99639.35;104909;1273;75295;-75
2022/07/02 15:43:52;;;;;;;5.40;5.00;;;;;;;25.00;100.00;99635.80;104899;1273;70527;-75
2022/07/02 15:46:24;;;;;;;5.90;5.50;;;;;;;24.87;100.00;99636.27;104974;1273;74187;-75
2022/07/02 15:48:53;;;;;;;6.10;5.60;;;;;;;24.77;100.00;99635.39;104841;1274;60634;-75